sensor_id;sensor_type;location;lat;lon;timestamp;temperature;humidity
4530;DHT22;2277;51.626;7.516;2023-12-29T00:00:37;11.80;99.90
4530;DHT22;2277;51.626;7.516;2023-12-29T00:03:03;11.80;99.90
4530;DHT22;2277;51.626;7.516;2023-12-29T00:05:29;11.70;99.90
4530;DHT22;2277;51.626;7.516;2023-12-29T00:07:54;11.70;99.90
4530;DHT22;2277;51.626;7.516;2023-12-29T00:10:20;11.80;99.90
4530;DHT22;2277;51.626;7.516;2023-12-29T00:12:45;11.80;99.90
4530;DHT22;2277;51.626;7.516;2023-12-29T00:15:11;11.80;99.90
4530;DHT22;2277;51.626;7.516;2023-12-29T00:17:37;11.80;99.90
4530;DHT22;2277;51.626;7.516;2023-12-29T00:20:06;11.80;99.90
4530;DHT22;2277;51.626;7.516;2023-12-29T00:22:33;11.80;99.90
4530;DHT22;2277;51.626;7.516;2023-12-29T00:24:59;11.80;99.90
4530;DHT22;2277;51.626;7.516;2023-12-29T00:27:24;11.80;99.90
4530;DHT22;2277;51.626;7.516;2023-12-29T00:29:50;11.90;99.90
4530;DHT22;2277;51.626;7.516;2023-12-29T00:32:16;11.90;99.90
4530;DHT22;2277;51.626;7.516;2023-12-29T00:34:41;11.90;99.90
4530;DHT22;2277;51.626;7.516;2023-12-29T00:37:07;11.80;99.90
4530;DHT22;2277;51.626;7.516;2023-12-29T00:39:33;11.90;99.90
4530;DHT22;2277;51.626;7.516;2023-12-29T00:42:04;11.90;99.90
4530;DHT22;2277;51.626;7.516;2023-12-29T00:44:30;11.80;99.90
4530;DHT22;2277;51.626;7.516;2023-12-29T00:46:55;11.80;99.90
4530;DHT22;2277;51.626;7.516;2023-12-29T00:49:21;11.80;99.90
4530;DHT22;2277;51.626;7.516;2023-12-29T00:51:49;11.80;99.90
4530;DHT22;2277;51.626;7.516;2023-12-29T00:54:15;11.90;99.90
4530;DHT22;2277;51.626;7.516;2023-12-29T00:56:41;11.90;99.90
4530;DHT22;2277;51.626;7.516;2023-12-29T00:59:06;12.00;99.90
4530;DHT22;2277;51.626;7.516;2023-12-29T01:01:36;12.00;99.90
4530;DHT22;2277;51.626;7.516;2023-12-29T01:04:02;12.00;99.90
4530;DHT22;2277;51.626;7.516;2023-12-29T01:06:27;12.00;99.90
4530;DHT22;2277;51.626;7.516;2023-12-29T01:08:53;11.90;99.90
4530;DHT22;2277;51.626;7.516;2023-12-29T01:11:19;11.90;99.90
4530;DHT22;2277;51.626;7.516;2023-12-29T01:13:44;11.90;99.90
4530;DHT22;2277;51.626;7.516;2023-12-29T01:16:10;11.90;99.90
4530;DHT22;2277;51.626;7.516;2023-12-29T01:18:35;12.00;99.90
4530;DHT22;2277;51.626;7.516;2023-12-29T01:21:01;12.00;99.90
4530;DHT22;2277;51.626;7.516;2023-12-29T01:23:27;12.00;99.90
4530;DHT22;2277;51.626;7.516;2023-12-29T01:25:52;12.00;99.90
4530;DHT22;2277;51.626;7.516;2023-12-29T01:28:18;12.00;99.90
4530;DHT22;2277;51.626;7.516;2023-12-29T01:30:44;12.00;99.90
4530;DHT22;2277;51.626;7.516;2023-12-29T01:33:09;12.00;99.90
4530;DHT22;2277;51.626;7.516;2023-12-29T01:35:35;12.00;99.90
4530;DHT22;2277;51.626;7.516;2023-12-29T01:38:02;12.00;99.90
4530;DHT22;2277;51.626;7.516;2023-12-29T01:40:28;12.00;99.90
4530;DHT22;2277;51.626;7.516;2023-12-29T01:42:53;12.00;99.90
4530;DHT22;2277;51.626;7.516;2023-12-29T01:45:23;12.00;99.90
4530;DHT22;2277;51.626;7.516;2023-12-29T01:47:50;12.00;99.90
4530;DHT22;2277;51.626;7.516;2023-12-29T01:50:20;12.00;99.90
4530;DHT22;2277;51.626;7.516;2023-12-29T01:52:47;11.90;99.90
4530;DHT22;2277;51.626;7.516;2023-12-29T01:55:17;11.90;99.90
4530;DHT22;2277;51.626;7.516;2023-12-29T01:57:44;11.80;99.90
4530;DHT22;2277;51.626;7.516;2023-12-29T02:00:11;11.80;99.90
4530;DHT22;2277;51.626;7.516;2023-12-29T02:02:37;11.80;99.90
4530;DHT22;2277;51.626;7.516;2023-12-29T02:05:03;11.80;99.90
4530;DHT22;2277;51.626;7.516;2023-12-29T02:07:29;11.80;99.90
4530;DHT22;2277;51.626;7.516;2023-12-29T02:09:57;11.70;99.90
4530;DHT22;2277;51.626;7.516;2023-12-29T02:12:23;11.60;99.90
4530;DHT22;2277;51.626;7.516;2023-12-29T02:14:49;11.70;99.90
4530;DHT22;2277;51.626;7.516;2023-12-29T02:17:27;11.60;99.90
4530;DHT22;2277;51.626;7.516;2023-12-29T02:19:55;11.60;99.90
4530;DHT22;2277;51.626;7.516;2023-12-29T02:22:20;11.50;99.90
4530;DHT22;2277;51.626;7.516;2023-12-29T02:24:49;11.50;99.90
4530;DHT22;2277;51.626;7.516;2023-12-29T02:32:49;11.20;99.90
4530;DHT22;2277;51.626;7.516;2023-12-29T02:35:21;11.20;99.90
4530;DHT22;2277;51.626;7.516;2023-12-29T02:37:48;11.10;99.90
4530;DHT22;2277;51.626;7.516;2023-12-29T02:40:14;11.10;99.90
4530;DHT22;2277;51.626;7.516;2023-12-29T02:42:48;11.00;99.90
4530;DHT22;2277;51.626;7.516;2023-12-29T02:45:17;11.00;99.90
4530;DHT22;2277;51.626;7.516;2023-12-29T02:47:43;11.00;99.90
4530;DHT22;2277;51.626;7.516;2023-12-29T02:50:10;11.00;99.90
4530;DHT22;2277;51.626;7.516;2023-12-29T02:52:36;10.90;99.90
4530;DHT22;2277;51.626;7.516;2023-12-29T02:55:02;10.80;99.90
4530;DHT22;2277;51.626;7.516;2023-12-29T02:57:28;10.70;99.90
4530;DHT22;2277;51.626;7.516;2023-12-29T02:59:54;10.70;99.90
4530;DHT22;2277;51.626;7.516;2023-12-29T03:02:20;10.60;99.90
4530;DHT22;2277;51.626;7.516;2023-12-29T03:04:46;10.60;99.90
4530;DHT22;2277;51.626;7.516;2023-12-29T03:07:11;10.50;99.90
4530;DHT22;2277;51.626;7.516;2023-12-29T03:09:37;10.50;99.90
4530;DHT22;2277;51.626;7.516;2023-12-29T03:12:03;10.50;99.90
4530;DHT22;2277;51.626;7.516;2023-12-29T03:14:28;10.40;99.90
4530;DHT22;2277;51.626;7.516;2023-12-29T03:16:54;10.30;99.90
4530;DHT22;2277;51.626;7.516;2023-12-29T03:19:20;10.20;99.90
4530;DHT22;2277;51.626;7.516;2023-12-29T03:21:46;10.20;99.90
4530;DHT22;2277;51.626;7.516;2023-12-29T03:24:11;10.20;99.90
4530;DHT22;2277;51.626;7.516;2023-12-29T03:26:37;10.20;99.90
4530;DHT22;2277;51.626;7.516;2023-12-29T03:29:03;10.20;99.90
4530;DHT22;2277;51.626;7.516;2023-12-29T03:31:28;10.20;99.90
4530;DHT22;2277;51.626;7.516;2023-12-29T03:33:54;10.30;99.90
4530;DHT22;2277;51.626;7.516;2023-12-29T03:36:19;10.20;99.90
4530;DHT22;2277;51.626;7.516;2023-12-29T03:38:45;10.20;99.90
4530;DHT22;2277;51.626;7.516;2023-12-29T03:41:11;10.30;99.90
4530;DHT22;2277;51.626;7.516;2023-12-29T03:43:36;10.20;99.90
4530;DHT22;2277;51.626;7.516;2023-12-29T03:46:02;10.30;99.90
4530;DHT22;2277;51.626;7.516;2023-12-29T03:48:27;10.30;99.90
4530;DHT22;2277;51.626;7.516;2023-12-29T03:50:53;10.40;99.90
4530;DHT22;2277;51.626;7.516;2023-12-29T03:53:19;10.40;99.90
4530;DHT22;2277;51.626;7.516;2023-12-29T03:55:44;10.40;99.90
4530;DHT22;2277;51.626;7.516;2023-12-29T03:58:10;10.40;99.90
4530;DHT22;2277;51.626;7.516;2023-12-29T04:00:36;10.50;99.90
4530;DHT22;2277;51.626;7.516;2023-12-29T04:03:02;10.60;99.90
4530;DHT22;2277;51.626;7.516;2023-12-29T04:05:27;10.60;99.90
4530;DHT22;2277;51.626;7.516;2023-12-29T04:07:53;10.60;99.90
4530;DHT22;2277;51.626;7.516;2023-12-29T04:10:18;10.70;99.90
4530;DHT22;2277;51.626;7.516;2023-12-29T04:12:44;10.70;99.90
4530;DHT22;2277;51.626;7.516;2023-12-29T04:15:10;10.70;99.90
4530;DHT22;2277;51.626;7.516;2023-12-29T04:17:35;10.70;99.90
4530;DHT22;2277;51.626;7.516;2023-12-29T04:20:01;10.80;99.90
4530;DHT22;2277;51.626;7.516;2023-12-29T04:22:27;10.70;99.90
4530;DHT22;2277;51.626;7.516;2023-12-29T04:24:52;10.80;99.90
4530;DHT22;2277;51.626;7.516;2023-12-29T04:27:18;10.80;99.90
4530;DHT22;2277;51.626;7.516;2023-12-29T04:29:44;10.80;99.90
4530;DHT22;2277;51.626;7.516;2023-12-29T04:32:10;10.80;99.90
4530;DHT22;2277;51.626;7.516;2023-12-29T04:34:36;10.80;99.90
4530;DHT22;2277;51.626;7.516;2023-12-29T04:37:02;10.80;99.90
4530;DHT22;2277;51.626;7.516;2023-12-29T04:39:27;10.90;99.90
4530;DHT22;2277;51.626;7.516;2023-12-29T04:41:53;10.90;99.90
4530;DHT22;2277;51.626;7.516;2023-12-29T04:44:18;10.90;99.90
4530;DHT22;2277;51.626;7.516;2023-12-29T04:46:44;10.90;99.90
4530;DHT22;2277;51.626;7.516;2023-12-29T04:49:09;11.00;99.90
4530;DHT22;2277;51.626;7.516;2023-12-29T04:51:35;10.90;99.90
4530;DHT22;2277;51.626;7.516;2023-12-29T04:54:01;10.90;99.90
4530;DHT22;2277;51.626;7.516;2023-12-29T04:56:26;10.90;99.90
4530;DHT22;2277;51.626;7.516;2023-12-29T04:58:52;11.00;99.90
4530;DHT22;2277;51.626;7.516;2023-12-29T05:01:17;11.00;99.90
4530;DHT22;2277;51.626;7.516;2023-12-29T05:03:43;11.00;99.90
4530;DHT22;2277;51.626;7.516;2023-12-29T05:06:09;11.10;99.90
4530;DHT22;2277;51.626;7.516;2023-12-29T05:08:34;11.10;99.90
4530;DHT22;2277;51.626;7.516;2023-12-29T05:11:00;11.20;99.90
4530;DHT22;2277;51.626;7.516;2023-12-29T05:13:26;11.20;99.90
4530;DHT22;2277;51.626;7.516;2023-12-29T05:15:51;11.20;99.90
4530;DHT22;2277;51.626;7.516;2023-12-29T05:18:17;11.20;99.90
4530;DHT22;2277;51.626;7.516;2023-12-29T05:20:43;11.20;99.90
4530;DHT22;2277;51.626;7.516;2023-12-29T05:23:08;11.20;99.90
4530;DHT22;2277;51.626;7.516;2023-12-29T05:25:34;11.20;99.90
4530;DHT22;2277;51.626;7.516;2023-12-29T05:27:59;11.30;99.90
4530;DHT22;2277;51.626;7.516;2023-12-29T05:30:25;11.20;99.90
4530;DHT22;2277;51.626;7.516;2023-12-29T05:32:53;11.20;99.90
4530;DHT22;2277;51.626;7.516;2023-12-29T05:35:18;11.30;99.90
4530;DHT22;2277;51.626;7.516;2023-12-29T05:37:44;11.30;99.90
4530;DHT22;2277;51.626;7.516;2023-12-29T05:40:10;11.30;99.90
4530;DHT22;2277;51.626;7.516;2023-12-29T05:42:36;11.30;99.90
4530;DHT22;2277;51.626;7.516;2023-12-29T05:45:02;11.30;99.90
4530;DHT22;2277;51.626;7.516;2023-12-29T05:47:27;11.30;99.90
4530;DHT22;2277;51.626;7.516;2023-12-29T05:49:53;11.30;99.90
4530;DHT22;2277;51.626;7.516;2023-12-29T05:52:18;11.30;99.90
4530;DHT22;2277;51.626;7.516;2023-12-29T05:54:44;11.30;99.90
4530;DHT22;2277;51.626;7.516;2023-12-29T05:57:10;11.30;99.90
4530;DHT22;2277;51.626;7.516;2023-12-29T05:59:36;11.30;99.90
4530;DHT22;2277;51.626;7.516;2023-12-29T06:02:01;11.30;99.90
4530;DHT22;2277;51.626;7.516;2023-12-29T06:04:28;11.30;99.90
4530;DHT22;2277;51.626;7.516;2023-12-29T06:06:53;11.30;99.90
4530;DHT22;2277;51.626;7.516;2023-12-29T06:09:19;11.30;99.90
4530;DHT22;2277;51.626;7.516;2023-12-29T06:11:45;11.30;99.90
4530;DHT22;2277;51.626;7.516;2023-12-29T06:14:10;11.30;99.90
4530;DHT22;2277;51.626;7.516;2023-12-29T06:16:36;11.30;99.90
4530;DHT22;2277;51.626;7.516;2023-12-29T06:19:02;11.30;99.90
4530;DHT22;2277;51.626;7.516;2023-12-29T06:21:27;11.30;99.90
4530;DHT22;2277;51.626;7.516;2023-12-29T06:23:53;11.30;99.90
4530;DHT22;2277;51.626;7.516;2023-12-29T06:26:20;11.30;99.90
4530;DHT22;2277;51.626;7.516;2023-12-29T06:28:47;11.30;99.90
4530;DHT22;2277;51.626;7.516;2023-12-29T06:31:13;11.30;99.90
4530;DHT22;2277;51.626;7.516;2023-12-29T06:33:42;11.40;99.90
4530;DHT22;2277;51.626;7.516;2023-12-29T06:36:09;11.40;99.90
4530;DHT22;2277;51.626;7.516;2023-12-29T06:38:35;11.40;99.90
4530;DHT22;2277;51.626;7.516;2023-12-29T06:41:04;11.30;99.90
4530;DHT22;2277;51.626;7.516;2023-12-29T06:43:30;11.40;99.90
4530;DHT22;2277;51.626;7.516;2023-12-29T06:45:56;11.40;99.90
4530;DHT22;2277;51.626;7.516;2023-12-29T06:48:22;11.30;99.90
4530;DHT22;2277;51.626;7.516;2023-12-29T06:50:47;11.40;99.90
4530;DHT22;2277;51.626;7.516;2023-12-29T06:53:13;11.40;99.90
4530;DHT22;2277;51.626;7.516;2023-12-29T06:55:38;11.40;99.90
4530;DHT22;2277;51.626;7.516;2023-12-29T06:58:04;11.50;99.90
4530;DHT22;2277;51.626;7.516;2023-12-29T07:00:30;11.50;99.90
4530;DHT22;2277;51.626;7.516;2023-12-29T07:02:56;11.50;99.90
4530;DHT22;2277;51.626;7.516;2023-12-29T07:05:21;11.50;99.90
4530;DHT22;2277;51.626;7.516;2023-12-29T07:07:47;11.50;99.90
4530;DHT22;2277;51.626;7.516;2023-12-29T07:10:13;11.50;99.90
4530;DHT22;2277;51.626;7.516;2023-12-29T07:12:42;11.50;99.90
4530;DHT22;2277;51.626;7.516;2023-12-29T07:15:08;11.40;99.90
4530;DHT22;2277;51.626;7.516;2023-12-29T07:17:33;11.30;99.90
4530;DHT22;2277;51.626;7.516;2023-12-29T07:20:00;11.40;99.90
4530;DHT22;2277;51.626;7.516;2023-12-29T07:22:26;11.40;99.90
4530;DHT22;2277;51.626;7.516;2023-12-29T07:24:51;11.40;99.90
4530;DHT22;2277;51.626;7.516;2023-12-29T07:27:17;11.50;99.90
4530;DHT22;2277;51.626;7.516;2023-12-29T07:29:43;11.50;99.90
4530;DHT22;2277;51.626;7.516;2023-12-29T07:32:08;11.50;99.90
4530;DHT22;2277;51.626;7.516;2023-12-29T07:34:34;11.40;99.90
4530;DHT22;2277;51.626;7.516;2023-12-29T07:36:59;11.20;99.90
4530;DHT22;2277;51.626;7.516;2023-12-29T07:39:25;11.20;99.90
4530;DHT22;2277;51.626;7.516;2023-12-29T07:41:51;11.20;99.90
4530;DHT22;2277;51.626;7.516;2023-12-29T07:44:18;11.10;99.90
4530;DHT22;2277;51.626;7.516;2023-12-29T07:46:44;11.10;99.90
4530;DHT22;2277;51.626;7.516;2023-12-29T07:49:10;11.10;99.90
4530;DHT22;2277;51.626;7.516;2023-12-29T07:51:39;11.10;99.90
4530;DHT22;2277;51.626;7.516;2023-12-29T07:54:06;11.00;99.90
4530;DHT22;2277;51.626;7.516;2023-12-29T07:56:32;10.80;99.90
4530;DHT22;2277;51.626;7.516;2023-12-29T07:58:58;10.80;99.90
4530;DHT22;2277;51.626;7.516;2023-12-29T08:01:23;10.80;99.90
4530;DHT22;2277;51.626;7.516;2023-12-29T08:03:49;10.80;99.90
4530;DHT22;2277;51.626;7.516;2023-12-29T08:06:14;10.70;99.90
4530;DHT22;2277;51.626;7.516;2023-12-29T08:08:41;10.70;99.90
4530;DHT22;2277;51.626;7.516;2023-12-29T08:11:13;10.60;99.90
4530;DHT22;2277;51.626;7.516;2023-12-29T08:13:39;10.50;99.90
4530;DHT22;2277;51.626;7.516;2023-12-29T08:16:05;10.50;99.90
4530;DHT22;2277;51.626;7.516;2023-12-29T08:18:32;10.50;99.90
4530;DHT22;2277;51.626;7.516;2023-12-29T08:20:58;10.50;99.90
4530;DHT22;2277;51.626;7.516;2023-12-29T08:23:25;10.50;99.90
4530;DHT22;2277;51.626;7.516;2023-12-29T08:25:52;10.50;99.90
4530;DHT22;2277;51.626;7.516;2023-12-29T08:28:17;10.50;99.90
4530;DHT22;2277;51.626;7.516;2023-12-29T08:30:43;10.40;99.90
4530;DHT22;2277;51.626;7.516;2023-12-29T08:33:11;10.50;99.90
4530;DHT22;2277;51.626;7.516;2023-12-29T08:35:41;10.50;99.90
4530;DHT22;2277;51.626;7.516;2023-12-29T08:38:07;10.50;99.90
4530;DHT22;2277;51.626;7.516;2023-12-29T08:40:33;10.40;99.90
4530;DHT22;2277;51.626;7.516;2023-12-29T08:42:59;10.40;99.90
4530;DHT22;2277;51.626;7.516;2023-12-29T08:45:26;10.40;99.90
4530;DHT22;2277;51.626;7.516;2023-12-29T08:47:52;10.30;99.90
4530;DHT22;2277;51.626;7.516;2023-12-29T08:50:18;10.30;99.90
4530;DHT22;2277;51.626;7.516;2023-12-29T08:52:43;10.40;99.90
4530;DHT22;2277;51.626;7.516;2023-12-29T08:55:09;10.30;99.90
4530;DHT22;2277;51.626;7.516;2023-12-29T08:57:35;10.30;99.90
4530;DHT22;2277;51.626;7.516;2023-12-29T09:00:01;10.30;99.90
4530;DHT22;2277;51.626;7.516;2023-12-29T09:02:26;10.30;99.90
4530;DHT22;2277;51.626;7.516;2023-12-29T09:04:52;10.30;99.90
4530;DHT22;2277;51.626;7.516;2023-12-29T09:07:17;10.30;99.90
4530;DHT22;2277;51.626;7.516;2023-12-29T09:09:43;10.30;99.90
4530;DHT22;2277;51.626;7.516;2023-12-29T09:12:09;10.30;99.90
4530;DHT22;2277;51.626;7.516;2023-12-29T09:14:34;10.30;99.90
4530;DHT22;2277;51.626;7.516;2023-12-29T09:17:00;10.40;99.90
4530;DHT22;2277;51.626;7.516;2023-12-29T09:19:26;10.50;99.90
4530;DHT22;2277;51.626;7.516;2023-12-29T09:21:52;10.50;99.90
4530;DHT22;2277;51.626;7.516;2023-12-29T09:24:17;10.50;99.90
4530;DHT22;2277;51.626;7.516;2023-12-29T09:26:43;10.50;99.90
4530;DHT22;2277;51.626;7.516;2023-12-29T09:29:08;10.60;99.90
4530;DHT22;2277;51.626;7.516;2023-12-29T09:31:34;10.60;99.90
4530;DHT22;2277;51.626;7.516;2023-12-29T09:34:01;10.60;99.90
4530;DHT22;2277;51.626;7.516;2023-12-29T09:36:26;10.60;99.90
4530;DHT22;2277;51.626;7.516;2023-12-29T09:38:52;10.60;99.90
4530;DHT22;2277;51.626;7.516;2023-12-29T09:41:18;10.60;99.90
4530;DHT22;2277;51.626;7.516;2023-12-29T09:43:50;10.70;99.90
4530;DHT22;2277;51.626;7.516;2023-12-29T09:46:21;10.70;99.90
4530;DHT22;2277;51.626;7.516;2023-12-29T09:48:47;10.70;99.90
4530;DHT22;2277;51.626;7.516;2023-12-29T09:51:15;10.70;99.90
4530;DHT22;2277;51.626;7.516;2023-12-29T09:53:42;10.80;99.90
4530;DHT22;2277;51.626;7.516;2023-12-29T09:56:08;10.80;99.90
4530;DHT22;2277;51.626;7.516;2023-12-29T09:58:35;10.90;99.90
4530;DHT22;2277;51.626;7.516;2023-12-29T10:01:04;10.90;99.90
4530;DHT22;2277;51.626;7.516;2023-12-29T10:03:30;10.90;99.90
4530;DHT22;2277;51.626;7.516;2023-12-29T10:06:00;11.00;99.90
4530;DHT22;2277;51.626;7.516;2023-12-29T10:08:27;10.90;99.90
4530;DHT22;2277;51.626;7.516;2023-12-29T10:10:55;11.00;99.90
4530;DHT22;2277;51.626;7.516;2023-12-29T10:13:23;10.90;99.90
4530;DHT22;2277;51.626;7.516;2023-12-29T10:21:27;11.00;99.90
4530;DHT22;2277;51.626;7.516;2023-12-29T10:24:05;11.00;99.90
4530;DHT22;2277;51.626;7.516;2023-12-29T10:26:35;11.00;99.90
4530;DHT22;2277;51.626;7.516;2023-12-29T10:29:01;11.10;99.90
4530;DHT22;2277;51.626;7.516;2023-12-29T10:31:27;11.00;99.90
4530;DHT22;2277;51.626;7.516;2023-12-29T10:34:25;11.10;99.90
4530;DHT22;2277;51.626;7.516;2023-12-29T10:36:55;11.10;99.90
4530;DHT22;2277;51.626;7.516;2023-12-29T10:39:21;11.10;99.90
4530;DHT22;2277;51.626;7.516;2023-12-29T10:41:46;11.00;99.90
4530;DHT22;2277;51.626;7.516;2023-12-29T10:44:12;11.00;99.90
4530;DHT22;2277;51.626;7.516;2023-12-29T10:46:38;11.00;99.90
4530;DHT22;2277;51.626;7.516;2023-12-29T10:49:11;11.00;99.90
4530;DHT22;2277;51.626;7.516;2023-12-29T10:51:37;11.10;99.90
4530;DHT22;2277;51.626;7.516;2023-12-29T10:54:03;11.10;99.90
4530;DHT22;2277;51.626;7.516;2023-12-29T10:56:32;11.10;99.90
4530;DHT22;2277;51.626;7.516;2023-12-29T10:59:05;11.20;99.90
4530;DHT22;2277;51.626;7.516;2023-12-29T11:01:35;11.20;99.90
4530;DHT22;2277;51.626;7.516;2023-12-29T11:04:03;11.20;99.90
4530;DHT22;2277;51.626;7.516;2023-12-29T11:06:29;11.20;99.90
4530;DHT22;2277;51.626;7.516;2023-12-29T11:08:56;11.20;99.90
4530;DHT22;2277;51.626;7.516;2023-12-29T11:11:23;11.30;99.90
4530;DHT22;2277;51.626;7.516;2023-12-29T11:13:49;11.30;99.90
4530;DHT22;2277;51.626;7.516;2023-12-29T11:16:15;11.40;99.90
4530;DHT22;2277;51.626;7.516;2023-12-29T11:18:47;11.40;99.90
4530;DHT22;2277;51.626;7.516;2023-12-29T11:21:15;11.40;99.90
4530;DHT22;2277;51.626;7.516;2023-12-29T11:23:41;11.40;99.90
4530;DHT22;2277;51.626;7.516;2023-12-29T11:26:07;11.50;99.90
4530;DHT22;2277;51.626;7.516;2023-12-29T11:28:32;11.50;99.90
4530;DHT22;2277;51.626;7.516;2023-12-29T11:30:58;11.50;99.90
4530;DHT22;2277;51.626;7.516;2023-12-29T11:33:29;11.50;99.90
4530;DHT22;2277;51.626;7.516;2023-12-29T11:36:15;11.50;99.90
4530;DHT22;2277;51.626;7.516;2023-12-29T11:38:57;11.60;99.90
4530;DHT22;2277;51.626;7.516;2023-12-29T11:41:54;11.70;99.90
4530;DHT22;2277;51.626;7.516;2023-12-29T11:44:25;11.80;99.90
4530;DHT22;2277;51.626;7.516;2023-12-29T11:46:59;11.90;99.90
4530;DHT22;2277;51.626;7.516;2023-12-29T11:49:25;11.90;99.90
4530;DHT22;2277;51.626;7.516;2023-12-29T11:51:51;12.00;99.90
4530;DHT22;2277;51.626;7.516;2023-12-29T11:54:26;11.90;99.90
4530;DHT22;2277;51.626;7.516;2023-12-29T11:56:55;11.90;99.90
4530;DHT22;2277;51.626;7.516;2023-12-29T12:01:50;11.80;99.90
4530;DHT22;2277;51.626;7.516;2023-12-29T12:07:15;11.90;99.90
4530;DHT22;2277;51.626;7.516;2023-12-29T12:09:40;11.90;99.90
4530;DHT22;2277;51.626;7.516;2023-12-29T12:12:06;11.90;99.90
4530;DHT22;2277;51.626;7.516;2023-12-29T12:17:31;11.90;99.90
4530;DHT22;2277;51.626;7.516;2023-12-29T12:20:08;11.90;99.90
4530;DHT22;2277;51.626;7.516;2023-12-29T12:22:37;12.00;99.90
4530;DHT22;2277;51.626;7.516;2023-12-29T12:25:03;12.00;99.90
4530;DHT22;2277;51.626;7.516;2023-12-29T12:27:30;12.00;99.90
4530;DHT22;2277;51.626;7.516;2023-12-29T12:29:58;12.10;99.90
4530;DHT22;2277;51.626;7.516;2023-12-29T12:32:26;12.10;99.90
4530;DHT22;2277;51.626;7.516;2023-12-29T12:34:52;12.10;99.90
4530;DHT22;2277;51.626;7.516;2023-12-29T12:37:27;12.10;99.90
4530;DHT22;2277;51.626;7.516;2023-12-29T12:39:53;12.10;99.90
4530;DHT22;2277;51.626;7.516;2023-12-29T12:42:20;12.20;99.90
4530;DHT22;2277;51.626;7.516;2023-12-29T12:45:25;12.20;99.90
4530;DHT22;2277;51.626;7.516;2023-12-29T12:48:00;12.20;99.90
4530;DHT22;2277;51.626;7.516;2023-12-29T12:50:26;12.20;99.90
4530;DHT22;2277;51.626;7.516;2023-12-29T12:52:52;12.20;99.90
4530;DHT22;2277;51.626;7.516;2023-12-29T12:55:18;12.30;99.90
4530;DHT22;2277;51.626;7.516;2023-12-29T12:57:45;12.30;99.90
4530;DHT22;2277;51.626;7.516;2023-12-29T13:00:11;12.30;99.90
4530;DHT22;2277;51.626;7.516;2023-12-29T13:02:37;12.30;99.90
4530;DHT22;2277;51.626;7.516;2023-12-29T13:05:03;12.20;99.90
4530;DHT22;2277;51.626;7.516;2023-12-29T13:07:33;12.30;99.90
4530;DHT22;2277;51.626;7.516;2023-12-29T13:10:00;12.30;99.90
4530;DHT22;2277;51.626;7.516;2023-12-29T13:12:26;12.30;99.90
4530;DHT22;2277;51.626;7.516;2023-12-29T13:14:52;12.30;99.90
4530;DHT22;2277;51.626;7.516;2023-12-29T13:17:17;12.30;99.90
4530;DHT22;2277;51.626;7.516;2023-12-29T13:19:43;12.30;99.90
4530;DHT22;2277;51.626;7.516;2023-12-29T13:22:11;12.30;99.90
4530;DHT22;2277;51.626;7.516;2023-12-29T13:24:46;12.30;99.90
4530;DHT22;2277;51.626;7.516;2023-12-29T13:27:12;12.30;99.90
4530;DHT22;2277;51.626;7.516;2023-12-29T13:29:38;12.20;99.90
4530;DHT22;2277;51.626;7.516;2023-12-29T13:32:10;12.10;99.90
4530;DHT22;2277;51.626;7.516;2023-12-29T13:35:04;11.90;99.90
4530;DHT22;2277;51.626;7.516;2023-12-29T13:40:12;11.50;99.90
4530;DHT22;2277;51.626;7.516;2023-12-29T13:42:41;11.30;99.90
4530;DHT22;2277;51.626;7.516;2023-12-29T13:45:09;11.10;99.90
4530;DHT22;2277;51.626;7.516;2023-12-29T13:47:37;11.00;99.90
4530;DHT22;2277;51.626;7.516;2023-12-29T13:50:04;10.90;99.90
4530;DHT22;2277;51.626;7.516;2023-12-29T13:52:31;10.80;99.90
4530;DHT22;2277;51.626;7.516;2023-12-29T13:54:57;10.70;99.90
4530;DHT22;2277;51.626;7.516;2023-12-29T13:57:41;10.60;99.90
4530;DHT22;2277;51.626;7.516;2023-12-29T14:02:48;10.40;99.90
4530;DHT22;2277;51.626;7.516;2023-12-29T14:08:09;10.30;99.90
4530;DHT22;2277;51.626;7.516;2023-12-29T14:10:36;10.30;99.90
4530;DHT22;2277;51.626;7.516;2023-12-29T14:13:08;10.40;99.90
4530;DHT22;2277;51.626;7.516;2023-12-29T14:15:39;10.40;99.90
4530;DHT22;2277;51.626;7.516;2023-12-29T14:18:26;10.40;99.90
4530;DHT22;2277;51.626;7.516;2023-12-29T14:20:56;10.40;99.90
4530;DHT22;2277;51.626;7.516;2023-12-29T14:23:22;10.40;99.90
4530;DHT22;2277;51.626;7.516;2023-12-29T14:25:48;10.40;99.90
4530;DHT22;2277;51.626;7.516;2023-12-29T14:28:18;10.50;99.90
4530;DHT22;2277;51.626;7.516;2023-12-29T14:30:44;10.40;99.90
4530;DHT22;2277;51.626;7.516;2023-12-29T14:33:11;10.40;99.90
4530;DHT22;2277;51.626;7.516;2023-12-29T14:35:36;10.50;99.90
4530;DHT22;2277;51.626;7.516;2023-12-29T14:38:02;10.50;99.90
4530;DHT22;2277;51.626;7.516;2023-12-29T14:40:28;10.40;99.90
4530;DHT22;2277;51.626;7.516;2023-12-29T14:42:54;10.20;99.90
4530;DHT22;2277;51.626;7.516;2023-12-29T14:45:20;10.20;99.90
4530;DHT22;2277;51.626;7.516;2023-12-29T14:47:46;10.30;99.90
4530;DHT22;2277;51.626;7.516;2023-12-29T14:50:12;10.30;99.90
4530;DHT22;2277;51.626;7.516;2023-12-29T14:52:38;10.30;99.90
4530;DHT22;2277;51.626;7.516;2023-12-29T14:55:04;10.30;99.90
4530;DHT22;2277;51.626;7.516;2023-12-29T14:57:29;10.40;99.90
4530;DHT22;2277;51.626;7.516;2023-12-29T14:59:56;10.40;99.90
4530;DHT22;2277;51.626;7.516;2023-12-29T15:02:22;10.50;99.90
4530;DHT22;2277;51.626;7.516;2023-12-29T15:04:47;10.50;99.90
4530;DHT22;2277;51.626;7.516;2023-12-29T15:07:17;10.50;99.90
4530;DHT22;2277;51.626;7.516;2023-12-29T15:09:43;10.60;99.90
4530;DHT22;2277;51.626;7.516;2023-12-29T15:12:09;10.60;99.90
4530;DHT22;2277;51.626;7.516;2023-12-29T15:14:35;10.70;99.90
4530;DHT22;2277;51.626;7.516;2023-12-29T15:17:00;10.70;99.90
4530;DHT22;2277;51.626;7.516;2023-12-29T15:19:26;10.80;99.90
4530;DHT22;2277;51.626;7.516;2023-12-29T15:21:51;10.90;99.90
4530;DHT22;2277;51.626;7.516;2023-12-29T15:24:19;10.90;99.90
4530;DHT22;2277;51.626;7.516;2023-12-29T15:26:46;10.90;99.90
4530;DHT22;2277;51.626;7.516;2023-12-29T15:29:11;11.00;99.90
4530;DHT22;2277;51.626;7.516;2023-12-29T15:31:37;11.00;99.90
4530;DHT22;2277;51.626;7.516;2023-12-29T15:34:02;11.00;99.90
4530;DHT22;2277;51.626;7.516;2023-12-29T15:36:29;11.00;99.90
4530;DHT22;2277;51.626;7.516;2023-12-29T15:38:54;11.10;99.90
4530;DHT22;2277;51.626;7.516;2023-12-29T15:41:20;11.10;99.90
4530;DHT22;2277;51.626;7.516;2023-12-29T15:43:46;11.10;99.90
4530;DHT22;2277;51.626;7.516;2023-12-29T15:46:21;11.10;99.90
4530;DHT22;2277;51.626;7.516;2023-12-29T15:48:47;11.20;99.90
4530;DHT22;2277;51.626;7.516;2023-12-29T15:51:13;11.20;99.90
4530;DHT22;2277;51.626;7.516;2023-12-29T15:53:39;11.20;99.90
4530;DHT22;2277;51.626;7.516;2023-12-29T15:56:06;11.20;99.90
4530;DHT22;2277;51.626;7.516;2023-12-29T15:58:32;11.20;99.90
4530;DHT22;2277;51.626;7.516;2023-12-29T16:00:58;11.20;99.90
4530;DHT22;2277;51.626;7.516;2023-12-29T16:03:23;11.20;99.90
4530;DHT22;2277;51.626;7.516;2023-12-29T16:05:49;11.00;99.90
4530;DHT22;2277;51.626;7.516;2023-12-29T16:08:14;11.10;99.90
4530;DHT22;2277;51.626;7.516;2023-12-29T16:10:41;11.00;99.90
4530;DHT22;2277;51.626;7.516;2023-12-29T16:13:06;11.00;99.90
4530;DHT22;2277;51.626;7.516;2023-12-29T16:15:32;11.00;99.90
4530;DHT22;2277;51.626;7.516;2023-12-29T16:17:58;11.00;99.90
4530;DHT22;2277;51.626;7.516;2023-12-29T16:20:25;10.90;99.90
4530;DHT22;2277;51.626;7.516;2023-12-29T16:22:51;10.80;99.90
4530;DHT22;2277;51.626;7.516;2023-12-29T16:25:17;10.90;99.90
4530;DHT22;2277;51.626;7.516;2023-12-29T16:27:44;10.80;99.90